Buoy 56916

sailwx.info

Track history (hours):
 
Tides and Currents Weather Stations Pressure Air Temp Water Temp Dewpoint Dewpoint Depression Visibility Wind Speed Wind Dir Waves Ship Positions

Drifting buoy 56916

Last reported at 2017-Jan-20 07:00 UTC. Time now 2017-Jan-20 07:58 UTC.
Position S 50°38' E 156°07'.

Barometer 1001.7 mb
Water temperature 10.4 ° C

Date/timePositionNaut miles runAvg speedWind from/ knotsBaromVisibWave heightAir tempDewpointWater temp
2017-Jan-20 07:00S 50°38' E 156°07'0 0.4 1001.7 10.4
2017-Jan-20 06:00S 50°38' E 156°07'0 0.0 1001.6 10.3
2017-Jan-20 05:00S 50°38' E 156°07'0 0.0 1001.8 10.2
2017-Jan-20 04:00S 50°38' E 156°07'0 0.0 1002.1 10.0
2017-Jan-20 03:00S 50°38' E 156°07'2 0.4 1002.5 10.0
2017-Jan-19 23:00S 50°37' E 156°05'0 0.0 1003.3 9.9
2017-Jan-19 22:00S 50°37' E 156°05'0 0.0 1003.8 9.8
2017-Jan-19 21:00S 50°37' E 156°05'1 0.7 1003.8 9.8
2017-Jan-19 20:00S 50°37' E 156°04'0 0.4 1003.7 9.8
2017-Jan-19 19:00S 50°37' E 156°05'1 1.3 1003.4 9.9
2017-Jan-19 18:00S 50°35' E 156°04'0 0.4 1003.3 9.9
2017-Jan-19 17:00S 50°35' E 156°05'0 0.4 1003.5 9.7
2017-Jan-19 16:00S 50°35' E 156°05'1 0.7 1004.5 9.7
2017-Jan-19 15:00S 50°35' E 156°05'1 0.6 1005.4 9.7
2017-Jan-19 14:00S 50°35' E 156°05'0 0.0 1005.7 9.7
2017-Jan-19 13:00S 50°35' E 156°05'1 0.6 1006.0 9.7
2017-Jan-19 12:00S 50°35' E 156°05'0 0.0 1006.6 9.7
2017-Jan-19 11:00S 50°35' E 156°05'0 0.0 1006.5 9.7
2017-Jan-19 10:00S 50°35' E 156°05'0 0.4 1006.1 9.7
2017-Jan-19 09:00S 50°35' E 156°04'0 0.0 1006.3 9.8
2017-Jan-19 08:00S 50°35' E 156°04'0 0.4 1006.0 9.8
2017-Jan-19 07:00S 50°35' E 156°04'1 0.7 1006.0 9.8
2017-Jan-19 06:00S 50°34' E 156°03'0 0.0 1006.1 9.8
2017-Jan-19 05:00S 50°34' E 156°03'0 0.0 1006.2 9.8
2017-Jan-19 04:00S 50°34' E 156°03'0 0.0 1006.2 9.8
2017-Jan-19 03:00S 50°34' E 156°03'1 0.3 1006.0 9.8
2017-Jan-18 22:00S 50°33' E 156°04'0 0.0 1003.6 9.7
2017-Jan-18 20:00S 50°33' E 156°04'0 0.4 1001.0 9.7
2017-Jan-18 19:00S 50°33' E 156°04'0 0.4 999.5 9.6
2017-Jan-18 18:00S 50°33' E 156°03'0 0.0 997.9 9.6
2017-Jan-18 17:00S 50°33' E 156°03'1 0.8 996.8 9.7
2017-Jan-18 16:00S 50°33' E 156°02'1 1.3 995.7 9.6
2017-Jan-18 15:00S 50°32' E 156°02'0 0.0 994.7 9.7
2017-Jan-18 14:00S 50°32' E 156°02'1 0.4 994.3 9.7
2017-Jan-18 12:00S 50°31' E 156°02'0 0.2 993.5 9.7
2017-Jan-18 10:00S 50°31' E 156°02'1 1.0 992.0 9.7
2017-Jan-18 09:00S 50°31' E 156°04'1 0.7 991.4 9.7
2017-Jan-18 08:00S 50°31' E 156°03'0 0.2 990.7 9.8
2017-Jan-18 06:00S 50°31' E 156°04'1 0.8 989.1 10.0
2017-Jan-18 05:00S 50°31' E 156°02'0 0.0 988.4 10.0
2017-Jan-18 04:00S 50°31' E 156°02'4 0.6 988.0 9.9
2017-Jan-17 22:00S 50°28' E 155°59'1 0.6 989.0 9.7
2017-Jan-17 20:00S 50°27' E 155°59'0 0.4 990.1 9.6
2017-Jan-17 19:00S 50°27' E 155°59'1 0.7 990.6 9.6
2017-Jan-17 18:00S 50°26' E 155°59'1 0.4 991.2 9.6
2017-Jan-17 16:00S 50°26' E 156°00'0 0.0 992.8 9.6
2017-Jan-17 14:00S 50°26' E 156°00'1 0.4 995.2 9.6
2017-Jan-17 12:00S 50°27' E 155°59'1 1.4 996.2 9.7
2017-Jan-17 11:00S 50°26' E 155°58'1 1.3 996.1 9.7
2017-Jan-17 10:00S 50°26' E 155°56'0 0.0 995.6 9.7
2017-Jan-17 09:00S 50°26' E 155°56'1 1.0 995.0 9.7
2017-Jan-17 08:00S 50°26' E 155°55'0 0.4 994.2 9.7
2017-Jan-17 07:00S 50°26' E 155°56'1 1.0 994.0 9.7
2017-Jan-17 06:00S 50°25' E 155°55'1 1.2 993.9 9.7
2017-Jan-17 05:00S 50°24' E 155°55'0 0.0 994.0 9.7
2017-Jan-17 04:00S 50°24' E 155°55'1 0.1 994.3 9.7
2017-Jan-16 23:00S 50°25' E 155°54'0 0.0 991.0 9.7
2017-Jan-16 22:00S 50°25' E 155°54'0 0.0 987.8 9.7
2017-Jan-16 21:00S 50°25' E 155°54'1 0.6 983.8 9.7
2017-Jan-16 19:00S 50°24' E 155°52'1 1.3 984.2 9.7
2017-Jan-16 18:00S 50°25' E 155°52'1 1.2 984.9 9.7
2017-Jan-16 17:00S 50°24' E 155°52'0 0.0 985.3 9.7
2017-Jan-16 16:00S 50°24' E 155°52'2 0.8 986.1 9.7
2017-Jan-16 14:00S 50°23' E 155°50'1 0.6 990.3 9.7
2017-Jan-16 13:00S 50°22' E 155°50'0 0.0 991.7 9.7
2017-Jan-16 11:00S 50°22' E 155°50'1 0.6 994.9 9.7
2017-Jan-16 10:00S 50°22' E 155°50'3 0.3 995.7 9.7
2017-Jan-16 00:00S 50°22' E 155°46'0 0.4 994.2 9.7
2017-Jan-15 23:00S 50°22' E 155°46'1 0.6 993.9 9.7
2017-Jan-15 21:00S 50°22' E 155°44'1 0.8 992.8 9.6
2017-Jan-15 20:00S 50°22' E 155°46'1 1.1 992.2 9.6
2017-Jan-15 19:00S 50°22' E 155°44'0 0.2 991.4 9.6
2017-Jan-15 17:00S 50°22' E 155°43'0 0.0 991.0 9.6
2017-Jan-15 16:00S 50°22' E 155°43'1 0.8 990.6 9.6
2017-Jan-15 15:00S 50°22' E 155°42'0 0.0 990.7 9.6
2017-Jan-15 14:00S 50°22' E 155°42'2 0.8 990.7 9.6
2017-Jan-15 12:00S 50°23' E 155°40'1 0.6 991.0 9.6
2017-Jan-15 11:00S 50°22' E 155°40'1 0.4 990.7 9.6
2017-Jan-15 09:00S 50°23' E 155°40'1 0.8 989.8 9.6
2017-Jan-15 08:00S 50°23' E 155°38'1 0.3 989.7 9.7
2017-Jan-15 06:00S 50°23' E 155°38'1 1.0 988.6 9.7
2017-Jan-15 05:00S 50°24' E 155°37'2 1.0 988.0 9.7
2017-Jan-15 03:00S 50°26' E 155°36'1 0.1 986.4 9.7
2017-Jan-14 23:00S 50°26' E 155°36'0 0.0 980.9 9.7
2017-Jan-14 22:00S 50°26' E 155°36'1 0.5 979.3 9.7
2017-Jan-14 20:00S 50°27' E 155°35'1 1.0 975.7 9.7
2017-Jan-14 19:00S 50°28' E 155°34'1 1.2 973.6 9.7
2017-Jan-14 18:00S 50°29' E 155°34'1 0.8 971.4 9.7
2017-Jan-14 17:00S 50°29' E 155°35'1 0.7 969.4 9.6
2017-Jan-14 16:00S 50°29' E 155°34'1 0.7 967.8 9.7
2017-Jan-14 15:00S 50°30' E 155°35'2 1.7 966.2 9.8
2017-Jan-14 14:00S 50°31' E 155°33'0 0.0 964.3 9.9
2017-Jan-14 13:00S 50°31' E 155°33'1 1.4 962.9 10.0
2017-Jan-14 12:00S 50°32' E 155°32'2 0.5 962.0 10.1
2017-Jan-14 09:00S 50°33' E 155°29'2 1.0 962.5 10.2
2017-Jan-14 07:00S 50°33' E 155°26'0 0.0 963.2 10.2
2017-Jan-14 06:00S 50°33' E 155°26'0 0.1 963.6 10.3
2017-Jan-14 03:00S 50°33' E 155°26'1 0.2 965.0 10.3
2017-Jan-14 00:00S 50°32' E 155°26'1 0.8 967.9 10.3
2017-Jan-13 23:00S 50°32' E 155°25'1 0.3 968.4 10.3
2017-Jan-13 21:00S 50°33' E 155°25'1 1.3 969.1 10.4
2017-Jan-13 20:00S 50°34' E 155°24'0 0.0 969.4 10.3
2017-Jan-13 19:00S 50°34' E 155°24'1 0.8 969.9 10.3
2017-Jan-13 18:00S 50°34' E 155°23'1 0.7 970.4 10.3
2017-Jan-13 17:00S 50°35' E 155°22'2 1.6 970.9 10.3
2017-Jan-13 16:00S 50°34' E 155°20'1 0.8 971.1 10.3
2017-Jan-13 15:00S 50°34' E 155°19'0 0.0 970.9 10.3
2017-Jan-13 14:00S 50°34' E 155°19'1 0.2 970.4 10.3
2017-Jan-13 11:00S 50°34' E 155°19'0 0.0 973.3 10.3
2017-Jan-13 10:00S 50°34' E 155°19'0 0.4 977.1 10.3
2017-Jan-13 09:00S 50°34' E 155°20'2 0.5 980.0 10.3
2017-Jan-13 05:00S 50°34' E 155°17'1 0.5 991.8 10.4
2017-Jan-13 03:00S 50°33' E 155°16'0 0.1 995.8 10.4
2017-Jan-12 22:00S 50°33' E 155°16'0 0.0 997.5 10.3
2017-Jan-12 21:00S 50°33' E 155°16'0 0.0 998.0 10.3
2017-Jan-12 20:00S 50°33' E 155°16'1 1.2 997.3 10.3
2017-Jan-12 19:00S 50°34' E 155°16'0 0.0 996.9 10.3
2017-Jan-12 18:00S 50°34' E 155°16'0 0.4 996.5 10.3
2017-Jan-12 17:00S 50°34' E 155°16'1 0.4 995.9 10.3
2017-Jan-12 15:00S 50°35' E 155°15'1 1.0 994.8 10.3
2017-Jan-12 14:00S 50°35' E 155°14'0 0.0 994.5 10.3
2017-Jan-12 13:00S 50°35' E 155°14'0 0.0 994.1 10.4
2017-Jan-12 12:00S 50°35' E 155°14'0 0.4 993.8 10.4
2017-Jan-12 11:00S 50°35' E 155°13'0 0.0 993.7 10.4
2017-Jan-12 10:00S 50°35' E 155°13'0 0.4 993.4 10.4
2017-Jan-12 09:00S 50°35' E 155°13'1 0.6 992.8 10.4
2017-Jan-12 08:00S 50°35' E 155°13'1 0.6 992.4 10.4
2017-Jan-12 07:00S 50°35' E 155°13'0 0.0 992.4 10.4
2017-Jan-12 06:00S 50°35' E 155°13'0 0.0 992.4 10.4
2017-Jan-12 05:00S 50°35' E 155°13'1 0.8 992.2 10.5
2017-Jan-12 04:00S 50°35' E 155°11'0 0.0 992.1 10.4
2017-Jan-12 03:00S 50°35' E 155°11'2 0.5 992.2 10.4
2017-Jan-11 23:00S 50°37' E 155°13'1 1.0 990.7 10.3
2017-Jan-11 22:00S 50°38' E 155°11'1 0.6 990.0 10.3
2017-Jan-11 21:00S 50°38' E 155°11'1 1.0 989.6 10.3
2017-Jan-11 20:00S 50°38' E 155°10'1 0.7 989.0 10.2
2017-Jan-11 19:00S 50°38' E 155°10'1 0.7 988.7 10.2
2017-Jan-11 18:00S 50°38' E 155°09'0 0.1 988.2 10.2
2017-Jan-11 15:00S 50°38' E 155°08'0 0.0 987.2 10.2
2017-Jan-11 14:00S 50°38' E 155°08'1 1.0 987.0 10.3
2017-Jan-11 13:00S 50°38' E 155°10'1 0.5 986.6 10.3
2017-Jan-11 11:00S 50°39' E 155°11'0 0.4 985.1 10.3
2017-Jan-11 10:00S 50°39' E 155°10'1 1.3 983.8 10.3
2017-Jan-11 09:00S 50°40' E 155°10'0 0.4 982.2 10.3
2017-Jan-11 08:00S 50°40' E 155°09'1 0.7 979.9 10.3
2017-Jan-11 06:00S 50°41' E 155°08'0 0.4 975.7 10.3
2017-Jan-11 05:00S 50°41' E 155°07'1 0.6 975.2 10.3
2017-Jan-11 04:00S 50°41' E 155°07'0 0.4 974.8 10.3
2017-Jan-11 03:00S 50°41' E 155°08'1 0.3 975.0 10.3
2017-Jan-10 23:00S 50°40' E 155°08'1 0.3 981.2 10.3
2017-Jan-10 21:00S 50°40' E 155°08'1 0.7 985.1 10.3
2017-Jan-10 20:00S 50°41' E 155°08'0 0.4 986.4 10.3
2017-Jan-10 19:00S 50°41' E 155°08'1 1.0 988.1 10.3
2017-Jan-10 18:00S 50°41' E 155°07'0 0.0 989.3 10.3
2017-Jan-10 17:00S 50°41' E 155°07'1 0.7 990.2 10.3
2017-Jan-10 16:00S 50°42' E 155°06'1 1.1 990.7 10.3
2017-Jan-10 15:00S 50°42' E 155°04'0 0.0 991.4 10.3
2017-Jan-10 14:00S 50°42' E 155°04'1 0.7 992.0 10.3
2017-Jan-10 13:00S 50°43' E 155°04'1 1.0 992.2 10.3
2017-Jan-10 12:00S 50°42' E 155°05'1 1.1 992.4 10.3
2017-Jan-10 11:00S 50°42' E 155°03'1 0.6 992.6 10.3
2017-Jan-10 10:00S 50°43' E 155°03'0 0.0 992.9 10.4
2017-Jan-10 09:00S 50°43' E 155°03'1 0.8 993.0 10.4
2017-Jan-10 08:00S 50°43' E 155°02'1 0.6 993.1 10.4
2017-Jan-10 07:00S 50°43' E 155°02'   992.9 10.4
Track history (hours):
 
Tides and Currents Weather Stations Pressure Air Temp Water Temp Dewpoint Dewpoint Depression Visibility Wind Speed Wind Dir Waves Ship Positions

Drifting buoy 56916

Last reported at 2017-Jan-20 07:00 UTC. Time now 2017-Jan-20 07:58 UTC.
Position S 50°38' E 156°07'.

Barometer 1001.7 mb
Water temperature 10.4 ° C

Date/timePositionNaut miles runAvg speedWind from/ knotsBaromVisibWave heightAir tempDewpointWater temp
2017-Jan-20 07:00S 50°38' E 156°07'0 0.4 1001.7 10.4
2017-Jan-20 06:00S 50°38' E 156°07'0 0.0 1001.6 10.3
2017-Jan-20 05:00S 50°38' E 156°07'0 0.0 1001.8 10.2
2017-Jan-20 04:00S 50°38' E 156°07'0 0.0 1002.1 10.0
2017-Jan-20 03:00S 50°38' E 156°07'2 0.4 1002.5 10.0
2017-Jan-19 23:00S 50°37' E 156°05'0 0.0 1003.3 9.9
2017-Jan-19 22:00S 50°37' E 156°05'0 0.0 1003.8 9.8
2017-Jan-19 21:00S 50°37' E 156°05'1 0.7 1003.8 9.8
2017-Jan-19 20:00S 50°37' E 156°04'0 0.4 1003.7 9.8
2017-Jan-19 19:00S 50°37' E 156°05'1 1.3 1003.4 9.9
2017-Jan-19 18:00S 50°35' E 156°04'0 0.4 1003.3 9.9
2017-Jan-19 17:00S 50°35' E 156°05'0 0.4 1003.5 9.7
2017-Jan-19 16:00S 50°35' E 156°05'1 0.7 1004.5 9.7
2017-Jan-19 15:00S 50°35' E 156°05'1 0.6 1005.4 9.7
2017-Jan-19 14:00S 50°35' E 156°05'0 0.0 1005.7 9.7
2017-Jan-19 13:00S 50°35' E 156°05'1 0.6 1006.0 9.7
2017-Jan-19 12:00S 50°35' E 156°05'0 0.0 1006.6 9.7
2017-Jan-19 11:00S 50°35' E 156°05'0 0.0 1006.5 9.7
2017-Jan-19 10:00S 50°35' E 156°05'0 0.4 1006.1 9.7
2017-Jan-19 09:00S 50°35' E 156°04'0 0.0 1006.3 9.8
2017-Jan-19 08:00S 50°35' E 156°04'0 0.4 1006.0 9.8
2017-Jan-19 07:00S 50°35' E 156°04'1 0.7 1006.0 9.8
2017-Jan-19 06:00S 50°34' E 156°03'0 0.0 1006.1 9.8
2017-Jan-19 05:00S 50°34' E 156°03'0 0.0 1006.2 9.8
2017-Jan-19 04:00S 50°34' E 156°03'0 0.0 1006.2 9.8
2017-Jan-19 03:00S 50°34' E 156°03'1 0.3 1006.0 9.8
2017-Jan-18 22:00S 50°33' E 156°04'0 0.0 1003.6 9.7
2017-Jan-18 20:00S 50°33' E 156°04'0 0.4 1001.0 9.7
2017-Jan-18 19:00S 50°33' E 156°04'0 0.4 999.5 9.6
2017-Jan-18 18:00S 50°33' E 156°03'0 0.0 997.9 9.6
2017-Jan-18 17:00S 50°33' E 156°03'1 0.8 996.8 9.7
2017-Jan-18 16:00S 50°33' E 156°02'1 1.3 995.7 9.6
2017-Jan-18 15:00S 50°32' E 156°02'0 0.0 994.7 9.7
2017-Jan-18 14:00S 50°32' E 156°02'1 0.4 994.3 9.7
2017-Jan-18 12:00S 50°31' E 156°02'0 0.2 993.5 9.7
2017-Jan-18 10:00S 50°31' E 156°02'1 1.0 992.0 9.7
2017-Jan-18 09:00S 50°31' E 156°04'1 0.7 991.4 9.7
2017-Jan-18 08:00S 50°31' E 156°03'0 0.2 990.7 9.8
2017-Jan-18 06:00S 50°31' E 156°04'1 0.8 989.1 10.0
2017-Jan-18 05:00S 50°31' E 156°02'0 0.0 988.4 10.0
2017-Jan-18 04:00S 50°31' E 156°02'4 0.6 988.0 9.9
2017-Jan-17 22:00S 50°28' E 155°59'1 0.6 989.0 9.7
2017-Jan-17 20:00S 50°27' E 155°59'0 0.4 990.1 9.6
2017-Jan-17 19:00S 50°27' E 155°59'1 0.7 990.6 9.6
2017-Jan-17 18:00S 50°26' E 155°59'1 0.4 991.2 9.6
2017-Jan-17 16:00S 50°26' E 156°00'0 0.0 992.8 9.6
2017-Jan-17 14:00S 50°26' E 156°00'1 0.4 995.2 9.6
2017-Jan-17 12:00S 50°27' E 155°59'1 1.4 996.2 9.7
2017-Jan-17 11:00S 50°26' E 155°58'1 1.3 996.1 9.7
2017-Jan-17 10:00S 50°26' E 155°56'0 0.0 995.6 9.7
2017-Jan-17 09:00S 50°26' E 155°56'1 1.0 995.0 9.7
2017-Jan-17 08:00S 50°26' E 155°55'0 0.4 994.2 9.7
2017-Jan-17 07:00S 50°26' E 155°56'1 1.0 994.0 9.7
2017-Jan-17 06:00S 50°25' E 155°55'1 1.2 993.9 9.7
2017-Jan-17 05:00S 50°24' E 155°55'0 0.0 994.0 9.7
2017-Jan-17 04:00S 50°24' E 155°55'1 0.1 994.3 9.7
2017-Jan-16 23:00S 50°25' E 155°54'0 0.0 991.0 9.7
2017-Jan-16 22:00S 50°25' E 155°54'0 0.0 987.8 9.7
2017-Jan-16 21:00S 50°25' E 155°54'1 0.6 983.8 9.7
2017-Jan-16 19:00S 50°24' E 155°52'1 1.3 984.2 9.7
2017-Jan-16 18:00S 50°25' E 155°52'1 1.2 984.9 9.7
2017-Jan-16 17:00S 50°24' E 155°52'0 0.0 985.3 9.7
2017-Jan-16 16:00S 50°24' E 155°52'2 0.8 986.1 9.7
2017-Jan-16 14:00S 50°23' E 155°50'1 0.6 990.3 9.7
2017-Jan-16 13:00S 50°22' E 155°50'0 0.0 991.7 9.7
2017-Jan-16 11:00S 50°22' E 155°50'1 0.6 994.9 9.7
2017-Jan-16 10:00S 50°22' E 155°50'3 0.3 995.7 9.7
2017-Jan-16 00:00S 50°22' E 155°46'0 0.4 994.2 9.7
2017-Jan-15 23:00S 50°22' E 155°46'1 0.6 993.9 9.7
2017-Jan-15 21:00S 50°22' E 155°44'1 0.8 992.8 9.6
2017-Jan-15 20:00S 50°22' E 155°46'1 1.1 992.2 9.6
2017-Jan-15 19:00S 50°22' E 155°44'0 0.2 991.4 9.6
2017-Jan-15 17:00S 50°22' E 155°43'0 0.0 991.0 9.6
2017-Jan-15 16:00S 50°22' E 155°43'1 0.8 990.6 9.6
2017-Jan-15 15:00S 50°22' E 155°42'0 0.0 990.7 9.6
2017-Jan-15 14:00S 50°22' E 155°42'2 0.8 990.7 9.6
2017-Jan-15 12:00S 50°23' E 155°40'1 0.6 991.0 9.6
2017-Jan-15 11:00S 50°22' E 155°40'1 0.4 990.7 9.6
2017-Jan-15 09:00S 50°23' E 155°40'1 0.8 989.8 9.6
2017-Jan-15 08:00S 50°23' E 155°38'1 0.3 989.7 9.7
2017-Jan-15 06:00S 50°23' E 155°38'1 1.0 988.6 9.7
2017-Jan-15 05:00S 50°24' E 155°37'2 1.0 988.0 9.7
2017-Jan-15 03:00S 50°26' E 155°36'1 0.1 986.4 9.7
2017-Jan-14 23:00S 50°26' E 155°36'0 0.0 980.9 9.7
2017-Jan-14 22:00S 50°26' E 155°36'1 0.5 979.3 9.7
2017-Jan-14 20:00S 50°27' E 155°35'1 1.0 975.7 9.7
2017-Jan-14 19:00S 50°28' E 155°34'1 1.2 973.6 9.7
2017-Jan-14 18:00S 50°29' E 155°34'1 0.8 971.4 9.7
2017-Jan-14 17:00S 50°29' E 155°35'1 0.7 969.4 9.6
2017-Jan-14 16:00S 50°29' E 155°34'1 0.7 967.8 9.7
2017-Jan-14 15:00S 50°30' E 155°35'2 1.7 966.2 9.8
2017-Jan-14 14:00S 50°31' E 155°33'0 0.0 964.3 9.9
2017-Jan-14 13:00S 50°31' E 155°33'1 1.4 962.9 10.0
2017-Jan-14 12:00S 50°32' E 155°32'2 0.5 962.0 10.1
2017-Jan-14 09:00S 50°33' E 155°29'2 1.0 962.5 10.2
2017-Jan-14 07:00S 50°33' E 155°26'0 0.0 963.2 10.2
2017-Jan-14 06:00S 50°33' E 155°26'0 0.1 963.6 10.3
2017-Jan-14 03:00S 50°33' E 155°26'1 0.2 965.0 10.3
2017-Jan-14 00:00S 50°32' E 155°26'1 0.8 967.9 10.3
2017-Jan-13 23:00S 50°32' E 155°25'1 0.3 968.4 10.3
2017-Jan-13 21:00S 50°33' E 155°25'1 1.3 969.1 10.4
2017-Jan-13 20:00S 50°34' E 155°24'0 0.0 969.4 10.3
2017-Jan-13 19:00S 50°34' E 155°24'1 0.8 969.9 10.3
2017-Jan-13 18:00S 50°34' E 155°23'1 0.7 970.4 10.3
2017-Jan-13 17:00S 50°35' E 155°22'2 1.6 970.9 10.3
2017-Jan-13 16:00S 50°34' E 155°20'1 0.8 971.1 10.3
2017-Jan-13 15:00S 50°34' E 155°19'0 0.0 970.9 10.3
2017-Jan-13 14:00S 50°34' E 155°19'1 0.2 970.4 10.3
2017-Jan-13 11:00S 50°34' E 155°19'0 0.0 973.3 10.3
2017-Jan-13 10:00S 50°34' E 155°19'0 0.4 977.1 10.3
2017-Jan-13 09:00S 50°34' E 155°20'2 0.5 980.0 10.3
2017-Jan-13 05:00S 50°34' E 155°17'1 0.5 991.8 10.4
2017-Jan-13 03:00S 50°33' E 155°16'0 0.1 995.8 10.4
2017-Jan-12 22:00S 50°33' E 155°16'0 0.0 997.5 10.3
2017-Jan-12 21:00S 50°33' E 155°16'0 0.0 998.0 10.3
2017-Jan-12 20:00S 50°33' E 155°16'1 1.2 997.3 10.3
2017-Jan-12 19:00S 50°34' E 155°16'0 0.0 996.9 10.3
2017-Jan-12 18:00S 50°34' E 155°16'0 0.4 996.5 10.3
2017-Jan-12 17:00S 50°34' E 155°16'1 0.4 995.9 10.3
2017-Jan-12 15:00S 50°35' E 155°15'1 1.0 994.8 10.3
2017-Jan-12 14:00S 50°35' E 155°14'0 0.0 994.5 10.3
2017-Jan-12 13:00S 50°35' E 155°14'0 0.0 994.1 10.4
2017-Jan-12 12:00S 50°35' E 155°14'0 0.4 993.8 10.4
2017-Jan-12 11:00S 50°35' E 155°13'0 0.0 993.7 10.4
2017-Jan-12 10:00S 50°35' E 155°13'0 0.4 993.4 10.4
2017-Jan-12 09:00S 50°35' E 155°13'1 0.6 992.8 10.4
2017-Jan-12 08:00S 50°35' E 155°13'1 0.6 992.4 10.4
2017-Jan-12 07:00S 50°35' E 155°13'0 0.0 992.4 10.4
2017-Jan-12 06:00S 50°35' E 155°13'0 0.0 992.4 10.4
2017-Jan-12 05:00S 50°35' E 155°13'1 0.8 992.2 10.5
2017-Jan-12 04:00S 50°35' E 155°11'0 0.0 992.1 10.4
2017-Jan-12 03:00S 50°35' E 155°11'2 0.5 992.2 10.4
2017-Jan-11 23:00S 50°37' E 155°13'1 1.0 990.7 10.3
2017-Jan-11 22:00S 50°38' E 155°11'1 0.6 990.0 10.3
2017-Jan-11 21:00S 50°38' E 155°11'1 1.0 989.6 10.3
2017-Jan-11 20:00S 50°38' E 155°10'1 0.7 989.0 10.2
2017-Jan-11 19:00S 50°38' E 155°10'1 0.7 988.7 10.2
2017-Jan-11 18:00S 50°38' E 155°09'0 0.1 988.2 10.2
2017-Jan-11 15:00S 50°38' E 155°08'0 0.0 987.2 10.2
2017-Jan-11 14:00S 50°38' E 155°08'1 1.0 987.0 10.3
2017-Jan-11 13:00S 50°38' E 155°10'1 0.5 986.6 10.3
2017-Jan-11 11:00S 50°39' E 155°11'0 0.4 985.1 10.3
2017-Jan-11 10:00S 50°39' E 155°10'1 1.3 983.8 10.3
2017-Jan-11 09:00S 50°40' E 155°10'0 0.4 982.2 10.3
2017-Jan-11 08:00S 50°40' E 155°09'1 0.7 979.9 10.3
2017-Jan-11 06:00S 50°41' E 155°08'0 0.4 975.7 10.3
2017-Jan-11 05:00S 50°41' E 155°07'1 0.6 975.2 10.3
2017-Jan-11 04:00S 50°41' E 155°07'0 0.4 974.8 10.3
2017-Jan-11 03:00S 50°41' E 155°08'1 0.3 975.0 10.3
2017-Jan-10 23:00S 50°40' E 155°08'1 0.3 981.2 10.3
2017-Jan-10 21:00S 50°40' E 155°08'1 0.7 985.1 10.3
2017-Jan-10 20:00S 50°41' E 155°08'0 0.4 986.4 10.3
2017-Jan-10 19:00S 50°41' E 155°08'1 1.0 988.1 10.3
2017-Jan-10 18:00S 50°41' E 155°07'0 0.0 989.3 10.3
2017-Jan-10 17:00S 50°41' E 155°07'1 0.7 990.2 10.3
2017-Jan-10 16:00S 50°42' E 155°06'1 1.1 990.7 10.3
2017-Jan-10 15:00S 50°42' E 155°04'0 0.0 991.4 10.3
2017-Jan-10 14:00S 50°42' E 155°04'1 0.7 992.0 10.3
2017-Jan-10 13:00S 50°43' E 155°04'1 1.0 992.2 10.3
2017-Jan-10 12:00S 50°42' E 155°05'1 1.1 992.4 10.3
2017-Jan-10 11:00S 50°42' E 155°03'1 0.6 992.6 10.3
2017-Jan-10 10:00S 50°43' E 155°03'0 0.0 992.9 10.4
2017-Jan-10 09:00S 50°43' E 155°03'1 0.8 993.0 10.4
2017-Jan-10 08:00S 50°43' E 155°02'1 0.6 993.1 10.4
2017-Jan-10 07:00S 50°43' E 155°02'   992.9 10.4

Dump ship's entire track history